Time;durP1;ratioP1;P1;durP2;ratioP2;P2;SDS_P1;SDS_P2;PMS_P1;PMS_P2;Temp;Humidity;BMP_temperature;BMP_pressure;BME280_temperature;BME280_humidity;BME280_pressure;Samples;Min_cycle;Max_cycle;Signal;HPM_P1;HPM_P2
2023/02/25 00:00:35;;;;;;;;;;;;;;;27.72;54.46;101345.78;5072225;27;65570;-41
2023/02/25 00:03:05;;;;;;;;;;;;;;;27.78;54.51;101336.97;5087388;27;70369;-39
2023/02/25 00:05:39;;;;;;;;;;;;;;;27.78;54.98;101334.28;5087994;27;65994;-39
2023/02/25 00:08:37;;;;;;;;;;;;;;;27.84;55.42;101338.94;5090545;27;70366;-40
2023/02/25 00:11:07;;;;;;;;;;;;;;;27.87;56.02;101338.56;5086503;27;66487;-39
2023/02/25 00:13:55;;;;;;;;;;;;;;;27.89;55.77;101336.53;5092520;27;69932;-41
2023/02/25 00:16:26;;;;;;;;;;;;;;;27.93;55.71;101345.88;5087718;27;66918;-39
2023/02/25 00:18:56;;;;;;;;;;;;;;;27.99;56.19;101347.00;5067962;27;69033;-42
2023/02/25 00:21:28;;;;;;;;;;;;;;;28.03;56.43;101342.91;5093070;27;67092;-43
2023/02/25 00:23:58;;;;;;;;;;;;;;;28.03;55.74;101343.75;5086499;27;69661;-42
2023/02/25 00:26:44;;;;;;;;;;;;;;;28.06;56.21;101346.06;5070384;27;66906;-39
2023/02/25 00:29:15;;;;;;;;;;;;;;;28.10;55.76;101357.28;5087798;27;70815;-41
2023/02/25 00:31:45;;;;;;;;;;;;;;;28.11;56.78;101355.41;5070418;27;66066;-40
2023/02/25 00:34:16;;;;;;;;;;;;;;;28.15;56.69;101352.16;5069498;27;69923;-40
2023/02/25 00:36:47;;;;;;;;;;;;;;;28.18;56.97;101357.16;5086842;27;66589;-40
2023/02/25 00:39:17;;;;;;;;;;;;;;;28.09;55.40;101357.50;5091392;27;69687;-40
2023/02/25 00:41:47;;;;;;;;;;;;;;;27.98;54.70;101364.22;5088244;27;67167;-40
2023/02/25 00:44:18;;;;;;;;;;;;;;;27.87;55.17;101365.53;5088913;27;69299;-41
2023/02/25 00:46:48;;;;;;;;;;;;;;;27.90;55.79;101369.72;5089394;27;66085;-39
2023/02/25 00:49:18;;;;;;;;;;;;;;;27.93;56.34;101372.84;5070920;27;70250;-40
2023/02/25 00:52:00;;;;;;;;;;;;;;;27.97;56.66;101376.84;5086413;27;66476;-39
2023/02/25 00:54:30;;;;;;;;;;;;;;;27.97;55.67;101381.38;5074670;27;69988;-40
2023/02/25 00:57:00;;;;;;;;;;;;;;;27.98;55.54;101378.53;5069146;27;66215;-42
2023/02/25 00:59:30;;;;;;;;;;;;;;;28.01;55.63;101380.84;5072480;27;70724;-41
2023/02/25 01:02:00;;;;;;;;;;;;;;;28.03;56.16;101381.50;5091263;27;65608;-43
2023/02/25 01:04:30;;;;;;;;;;;;;;;28.07;55.78;101385.47;5073282;27;70264;-40
2023/02/25 01:07:01;;;;;;;;;;;;;;;28.11;56.20;101388.66;5091658;27;66518;-41
2023/02/25 01:09:32;;;;;;;;;;;;;;;28.14;56.32;101390.09;5072428;27;70212;-40
2023/02/25 01:12:02;;;;;;;;;;;;;;;28.17;56.01;101387.03;5072688;27;66510;-41
2023/02/25 01:14:33;;;;;;;;;;;;;;;28.19;56.33;101401.16;5084170;27;70218;-42
2023/02/25 01:17:04;;;;;;;;;;;;;;;28.20;56.28;101403.69;5059076;27;65198;-40
2023/02/25 01:19:35;;;;;;;;;;;;;;;28.23;56.07;101415.97;5069650;27;69503;-40
2023/02/25 01:22:06;;;;;;;;;;;;;;;28.26;56.23;101418.28;5088712;27;66023;-42
2023/02/25 01:24:36;;;;;;;;;;;;;;;28.28;56.11;101421.63;5089141;27;69252;-41
2023/02/25 01:27:07;;;;;;;;;;;;;;;28.29;55.72;101424.13;5087815;27;66700;-43
2023/02/25 01:29:39;;;;;;;;;;;;;;;28.33;55.64;101424.56;5091213;27;70014;-41
2023/02/25 01:32:10;;;;;;;;;;;;;;;28.34;55.71;101430.81;5087969;27;66680;-40
2023/02/25 01:34:41;;;;;;;;;;;;;;;28.35;55.61;101433.31;5071279;27;70884;-40
2023/02/25 01:37:11;;;;;;;;;;;;;;;28.37;55.79;101436.66;5090896;27;66725;-41
2023/02/25 01:39:41;;;;;;;;;;;;;;;28.14;55.58;101400.88;5094861;27;70286;-39
2023/02/25 01:42:13;;;;;;;;;;;;;;;28.40;55.84;101436.28;5074639;27;67087;-40
2023/02/25 01:45:04;;;;;;;;;;;;;;;28.42;55.47;101442.38;5091806;27;70583;-39
2023/02/25 01:47:35;;;;;;;;;;;;;;;28.45;55.53;101433.88;5090427;27;66628;-40
2023/02/25 01:50:06;;;;;;;;;;;;;;;28.47;55.43;101436.38;5068600;27;69896;-40
2023/02/25 01:52:39;;;;;;;;;;;;;;;28.49;55.44;101437.03;5092139;27;66487;-40
2023/02/25 01:55:09;;;;;;;;;;;;;;;28.51;55.45;101441.22;5064875;27;70470;-40
2023/02/25 01:57:40;;;;;;;;;;;;;;;28.52;55.94;101434.78;5063454;27;66247;-41
2023/02/25 02:00:16;;;;;;;;;;;;;;;28.56;55.86;101446.03;5068991;27;69781;-41
2023/02/25 02:02:48;;;;;;;;;;;;;;;28.60;55.34;101454.59;5093260;27;66508;-40
2023/02/25 02:05:18;;;;;;;;;;;;;;;28.61;55.37;101458.94;5082849;27;70040;-41
2023/02/25 02:07:48;;;;;;;;;;;;;;;28.64;55.85;101458.56;5091366;27;67487;-40
2023/02/25 02:10:18;;;;;;;;;;;;;;;28.65;55.52;101449.47;5077619;27;69812;-41
2023/02/25 02:12:48;;;;;;;;;;;;;;;28.66;55.33;101445.72;5075399;27;66125;-40
2023/02/25 02:15:18;;;;;;;;;;;;;;;28.68;55.36;101454.47;5069997;27;69980;-40
2023/02/25 02:17:51;;;;;;;;;;;;;;;28.69;55.20;101456.97;5096655;27;66042;-41
2023/02/25 02:20:21;;;;;;;;;;;;;;;28.73;55.24;101462.84;5092584;27;70805;-40
2023/02/25 02:23:20;;;;;;;;;;;;;;;28.73;55.32;101458.25;5070590;27;66040;-40
2023/02/25 02:25:51;;;;;;;;;;;;;;;28.75;55.71;101460.75;5064295;27;70040;-40
2023/02/25 02:28:21;;;;;;;;;;;;;;;28.78;55.27;101452.31;5096917;27;66294;-40
2023/02/25 02:30:51;;;;;;;;;;;;;;;28.80;55.76;101452.09;5074480;27;70696;-40
2023/02/25 02:33:44;;;;;;;;;;;;;;;28.81;55.61;101445.69;5091563;27;67052;-41
2023/02/25 02:36:17;;;;;;;;;;;;;;;28.84;55.71;101448.00;5078551;27;70393;-41
2023/02/25 02:38:47;;;;;;;;;;;;;;;28.85;55.72;101447.78;5088694;27;66932;-40
2023/02/25 02:41:17;;;;;;;;;;;;;;;28.87;55.81;101456.53;5070864;27;70167;-41
2023/02/25 02:43:50;;;;;;;;;;;;;;;28.91;55.66;101457.81;5097091;27;66794;-41
2023/02/25 02:46:23;;;;;;;;;;;;;;;28.92;55.39;101455.97;5077170;27;71027;-41
2023/02/25 02:48:58;;;;;;;;;;;;;;;28.94;55.64;101449.31;5097909;27;66464;-42
2023/02/25 02:51:48;;;;;;;;;;;;;;;28.72;55.74;101409.84;5091739;27;70467;-39
2023/02/25 02:54:19;;;;;;;;;;;;;;;28.98;55.22;101444.38;5096131;27;65923;-40
2023/02/25 02:56:52;;;;;;;;;;;;;;;29.01;55.68;101444.00;5086138;27;69536;-40
2023/02/25 02:59:48;;;;;;;;;;;;;;;29.03;55.69;101446.47;5092395;27;66087;-40
2023/02/25 03:02:30;;;;;;;;;;;;;;;29.05;55.24;101445.28;5069620;27;70555;-40
2023/02/25 03:05:02;;;;;;;;;;;;;;;29.08;55.22;101447.59;5062365;27;66280;-40
2023/02/25 03:07:35;;;;;;;;;;;;;;;29.11;55.61;101439.13;5090988;27;69800;-40
2023/02/25 03:10:07;;;;;;;;;;;;;;;29.13;55.88;101438.91;5079926;27;66730;-41
2023/02/25 03:12:37;;;;;;;;;;;;;;;29.15;55.34;101428.75;5096703;27;69792;-40
2023/02/25 03:15:09;;;;;;;;;;;;;;;29.17;55.78;101429.41;5069422;27;66891;-41
2023/02/25 03:17:41;;;;;;;;;;;;;;;29.20;55.37;101431.72;5092916;27;69866;-40
2023/02/25 03:20:24;;;;;;;;;;;;;;;29.22;55.78;101429.63;5098824;27;67096;-40
2023/02/25 03:22:55;;;;;;;;;;;;;;;29.26;55.38;101424.69;5075507;27;70928;-40
2023/02/25 03:25:29;;;;;;;;;;;;;;;29.29;55.74;101425.13;5077210;27;65627;-40
2023/02/25 03:28:03;;;;;;;;;;;;;;;29.31;55.68;101417.66;5094416;27;69409;-41
2023/02/25 03:30:43;;;;;;;;;;;;;;;29.34;55.29;101409.16;5079269;27;66862;-41
2023/02/25 03:33:20;;;;;;;;;;;;;;;29.37;55.98;101414.16;5091610;27;69861;-41
2023/02/25 03:35:54;;;;;;;;;;;;;;;29.37;55.89;101406.06;5074806;27;66701;-40
2023/02/25 03:38:26;;;;;;;;;;;;;;;29.40;57.53;101402.97;5079514;27;70074;-40
2023/02/25 03:40:59;;;;;;;;;;;;;;;29.38;56.25;101407.72;5074923;27;66945;-40
2023/02/25 03:43:35;;;;;;;;;;;;;;;29.38;56.49;101410.44;5074192;27;69899;-41
2023/02/25 03:46:06;;;;;;;;;;;;;;;29.36;56.31;101404.41;5093092;27;65460;-39
2023/02/25 03:48:37;;;;;;;;;;;;;;;29.35;56.66;101401.88;5091092;27;69651;-41
2023/02/25 03:51:10;;;;;;;;;;;;;;;29.31;56.68;101401.47;5053129;27;65580;-40
2023/02/25 03:53:42;;;;;;;;;;;;;;;29.32;56.48;101403.13;5078149;27;70586;-41
2023/02/25 03:56:17;;;;;;;;;;;;;;;29.29;56.68;101392.69;5076639;27;65369;-41
2023/02/25 03:58:47;;;;;;;;;;;;;;;28.81;56.50;101319.59;5076984;27;69501;-41
2023/02/25 04:01:25;;;;;;;;;;;;;;;29.30;56.42;101388.97;5077657;27;66539;-41
2023/02/25 04:03:55;;;;;;;;;;;;;;;29.29;56.33;101381.91;5090333;27;69059;-40
2023/02/25 04:06:25;;;;;;;;;;;;;;;29.30;56.19;101378.16;5058263;27;65629;-40
2023/02/25 04:08:55;;;;;;;;;;;;;;;29.31;56.42;101374.44;5076968;27;70190;-42
2023/02/25 04:11:26;;;;;;;;;;;;;;;29.33;57.15;101363.41;5081382;27;65037;-41
2023/02/25 04:13:56;;;;;;;;;;;;;;;29.34;56.54;101363.22;5089876;27;69907;-40
2023/02/25 04:16:26;;;;;;;;;;;;;;;29.31;56.17;101355.50;5061435;27;66596;-40
2023/02/25 04:18:58;;;;;;;;;;;;;;;29.33;56.33;101348.03;5096359;27;70631;-40
2023/02/25 04:21:31;;;;;;;;;;;;;;;29.35;57.02;101348.66;5077827;27;65969;-40
2023/02/25 04:24:02;;;;;;;;;;;;;;;29.40;56.88;101342.69;5099220;27;70233;-41
2023/02/25 04:26:32;;;;;;;;;;;;;;;29.47;57.03;101342.69;5076516;27;65554;-41
2023/02/25 04:29:02;;;;;;;;;;;;;;;29.49;57.02;101336.06;5097689;27;70462;-41
2023/02/25 04:31:32;;;;;;;;;;;;;;;29.54;57.49;101341.72;5090265;27;66111;-43
2023/02/25 04:34:03;;;;;;;;;;;;;;;29.55;56.82;101337.97;5085038;27;70349;-42
2023/02/25 04:36:34;;;;;;;;;;;;;;;29.57;56.81;101335.06;5069923;27;66617;-41
2023/02/25 04:39:04;;;;;;;;;;;;;;;29.59;56.69;101324.91;5077593;27;69701;-41
2023/02/25 04:41:36;;;;;;;;;;;;;;;29.60;56.40;101323.84;5090247;27;66775;-40
2023/02/25 04:44:06;;;;;;;;;;;;;;;29.63;55.83;101318.06;5088185;27;69953;-40
2023/02/25 04:46:38;;;;;;;;;;;;;;;29.68;55.61;101310.19;5059214;27;65532;-41
2023/02/25 04:49:09;;;;;;;;;;;;;;;29.70;55.61;101308.13;5079149;27;69923;-41
2023/02/25 04:51:39;;;;;;;;;;;;;;;29.71;55.96;101311.66;5067715;27;65666;-40
2023/02/25 04:54:10;;;;;;;;;;;;;;;29.74;55.73;101303.97;5096675;27;70022;-41
2023/02/25 04:56:40;;;;;;;;;;;;;;;29.78;55.93;101305.25;5088010;27;66908;-40
2023/02/25 04:59:11;;;;;;;;;;;;;;;29.79;57.09;101301.50;5091398;27;70299;-39
2023/02/25 05:01:40;;;;;;;;;;;;;;;29.82;56.78;101301.09;5073840;27;64511;-40
2023/02/25 05:04:11;;;;;;;;;;;;;;;29.90;57.57;101297.38;5089977;27;69004;-39
2023/02/25 05:06:40;;;;;;;;;;;;;;;29.93;58.15;101293.44;5092275;27;66620;-39
2023/02/25 05:09:11;;;;;;;;;;;;;;;29.95;58.04;101294.03;5093181;27;70372;-40
2023/02/25 05:11:41;;;;;;;;;;;;;;;29.95;58.25;101294.03;5096086;27;66883;-39
2023/02/25 05:14:11;;;;;;;;;;;;;;;29.77;55.63;101279.22;5083878;27;70363;-47
2023/02/25 05:16:40;;;;;;;;;;;;;;;29.56;54.03;101282.03;5086800;27;65853;-39
2023/02/25 05:19:15;;;;;;;;;;;;;;;29.38;51.39;101271.78;5092164;27;69385;-39
2023/02/25 05:21:45;;;;;;;;;;;;;;;29.26;50.56;101268.81;5091155;27;66998;-40
2023/02/25 05:24:15;;;;;;;;;;;;;;;29.12;48.94;101267.06;5095938;27;70116;-40
2023/02/25 05:26:45;;;;;;;;;;;;;;;28.96;48.14;101260.91;5096430;27;66910;-40
2023/02/25 05:29:16;;;;;;;;;;;;;;;28.91;47.12;101262.53;5087037;27;69375;-40
2023/02/25 05:31:46;;;;;;;;;;;;;;;28.80;46.40;101257.69;5094555;27;66234;-43
2023/02/25 05:34:17;;;;;;;;;;;;;;;28.73;45.64;101247.69;5094063;27;70433;-40
2023/02/25 05:36:46;;;;;;;;;;;;;;;28.65;44.67;101247.84;5100700;27;66084;-39
2023/02/25 05:39:16;;;;;;;;;;;;;;;28.55;44.32;101249.19;5092091;27;70029;-41
2023/02/25 05:41:47;;;;;;;;;;;;;;;28.47;44.41;101245.63;5095646;27;67103;-40
2023/02/25 05:44:17;;;;;;;;;;;;;;;28.41;43.61;101240.97;5098784;27;70587;-40
2023/02/25 05:46:47;;;;;;;;;;;;;;;28.36;43.32;101235.34;5083765;27;66697;-40
2023/02/25 05:49:17;;;;;;;;;;;;;;;28.32;42.76;101235.91;5099054;27;70955;-41
2023/02/25 05:51:48;;;;;;;;;;;;;;;28.29;42.73;101229.03;5084818;27;65499;-42
2023/02/25 05:54:18;;;;;;;;;;;;;;;28.23;42.24;101222.56;5097375;27;70368;-41
2023/02/25 05:56:50;;;;;;;;;;;;;;;28.24;42.37;101215.28;5096783;27;66455;-41
2023/02/25 05:59:21;;;;;;;;;;;;;;;28.21;42.13;101202.19;5102384;27;68099;-41
2023/02/25 06:01:50;;;;;;;;;;;;;;;28.16;41.78;101202.78;5102428;27;66138;-40
2023/02/25 06:04:21;;;;;;;;;;;;;;;28.14;41.30;101199.47;5095899;27;69781;-41
2023/02/25 06:06:51;;;;;;;;;;;;;;;28.13;41.25;101196.94;5094526;27;66786;-41
2023/02/25 06:09:21;;;;;;;;;;;;;;;28.10;41.40;101186.53;5100072;27;71247;-43
2023/02/25 06:11:51;;;;;;;;;;;;;;;28.06;41.28;101186.94;5101163;27;66742;-41
2023/02/25 06:14:21;;;;;;;;;;;;;;;28.05;40.92;101185.28;5095707;27;69726;-39
2023/02/25 06:16:55;;;;;;;;;;;;;;;28.03;40.73;101176.53;5095644;27;66354;-40
2023/02/25 06:19:25;;;;;;;;;;;;;;;28.02;40.72;101177.53;5096000;27;69277;-41
2023/02/25 06:21:55;;;;;;;;;;;;;;;28.00;40.58;101173.38;5076070;27;66921;-41
2023/02/25 06:24:26;;;;;;;;;;;;;;;27.96;40.99;101175.63;5081573;27;70458;-40
2023/02/25 06:26:56;;;;;;;;;;;;;;;27.98;40.72;101167.38;5076539;27;65267;-39
2023/02/25 06:29:26;;;;;;;;;;;;;;;27.97;40.64;101166.53;5068034;27;69807;-40
2023/02/25 06:31:56;;;;;;;;;;;;;;;27.97;40.46;101160.28;5101135;27;65521;-40
2023/02/25 06:34:31;;;;;;;;;;;;;;;27.99;40.41;101155.53;5101475;27;70320;-39
2023/02/25 06:37:01;;;;;;;;;;;;;;;27.97;40.46;101160.28;5098427;27;66702;-39
2023/02/25 06:39:31;;;;;;;;;;;;;;;27.93;39.99;101149.06;5096139;27;69667;-41
2023/02/25 06:42:02;;;;;;;;;;;;;;;27.94;40.11;101145.31;5088292;27;66309;-40
2023/02/25 06:44:32;;;;;;;;;;;;;;;27.94;40.15;101145.31;5092396;27;69927;-39
2023/02/25 06:47:01;;;;;;;;;;;;;;;27.93;40.13;101138.28;5088918;27;65640;-39
2023/02/25 06:49:31;;;;;;;;;;;;;;;27.91;39.79;101137.63;5100487;27;70280;-41
2023/02/25 06:52:01;;;;;;;;;;;;;;;27.91;40.10;101134.94;5096623;27;65989;-39
2023/02/25 06:54:31;;;;;;;;;;;;;;;27.96;40.22;101128.97;5092598;27;70417;-40
2023/02/25 06:57:01;;;;;;;;;;;;;;;28.12;40.50;101117.06;5078572;27;67490;-40
2023/02/25 06:59:34;;;;;;;;;;;;;;;28.26;40.23;101121.53;5097946;27;70120;-40
2023/02/25 07:02:04;;;;;;;;;;;;;;;28.31;39.68;101119.06;5092027;27;66674;-40
2023/02/25 07:04:34;;;;;;;;;;;;;;;28.34;39.25;101099.78;5094835;27;70481;-39
2023/02/25 07:07:04;;;;;;;;;;;;;;;28.37;39.01;101093.16;5094726;27;65497;-39
2023/02/25 07:09:34;;;;;;;;;;;;;;;28.39;39.13;101094.63;5097860;27;70808;-39
2023/02/25 07:12:04;;;;;;;;;;;;;;;28.41;38.91;101084.47;5095103;27;66686;-40
2023/02/25 07:14:34;;;;;;;;;;;;;;;28.46;39.13;101079.34;5091755;27;70090;-38
2023/02/25 07:17:04;;;;;;;;;;;;;;;28.48;39.25;101076.44;5094394;27;66553;-40
2023/02/25 07:19:34;;;;;;;;;;;;;;;28.52;39.93;101073.13;5075080;27;70206;-41
2023/02/25 07:22:04;;;;;;;;;;;;;;;28.58;39.60;101070.69;5094282;27;66147;-40
2023/02/25 07:24:34;;;;;;;;;;;;;;;28.20;39.21;101014.44;5092485;27;70788;-40
2023/02/25 07:27:04;;;;;;;;;;;;;;;28.65;39.57;101068.84;5096411;27;66094;-42
2023/02/25 07:29:34;;;;;;;;;;;;;;;28.65;39.41;101061.59;5093081;27;70361;-39
2023/02/25 07:32:04;;;;;;;;;;;;;;;28.68;39.00;101057.66;5089998;27;66796;-39
2023/02/25 07:34:36;;;;;;;;;;;;;;;28.71;39.15;101058.06;5096341;27;70010;-39
2023/02/25 07:37:06;;;;;;;;;;;;;;;28.73;38.70;101064.09;5096886;27;65166;-39
2023/02/25 07:39:36;;;;;;;;;;;;;;;28.77;38.76;101048.34;5096707;27;69475;-39
2023/02/25 07:42:06;;;;;;;;;;;;;;;28.81;38.35;101055.00;5092911;27;66530;-39
2023/02/25 07:44:37;;;;;;;;;;;;;;;28.84;38.26;101046.50;5079159;27;69012;-41
2023/02/25 07:47:07;;;;;;;;;;;;;;;28.82;38.12;101045.88;5098397;27;66148;-42
2023/02/25 07:49:37;;;;;;;;;;;;;;;28.81;38.47;101038.81;5095626;27;68229;-39
2023/02/25 07:52:07;;;;;;;;;;;;;;;28.93;38.71;101037.19;5090360;27;65360;-41
2023/02/25 07:54:37;;;;;;;;;;;;;;;29.24;40.61;101038.53;5094014;27;70328;-40
2023/02/25 07:57:07;;;;;;;;;;;;;;;29.48;43.98;101033.56;5091328;27;66967;-40
2023/02/25 07:59:37;;;;;;;;;;;;;;;29.68;44.08;101034.44;5089535;27;69888;-40
2023/02/25 08:02:09;;;;;;;;;;;;;;;29.87;45.36;101035.47;5088136;27;65466;-40
2023/02/25 08:04:39;;;;;;;;;;;;;;;29.96;51.45;101036.06;5081293;27;70222;-40
2023/02/25 08:07:09;;;;;;;;;;;;;;;30.03;52.33;101026.06;5092724;27;66233;-41
2023/02/25 08:09:40;;;;;;;;;;;;;;;30.05;53.61;101027.50;5093547;27;69677;-40
2023/02/25 08:12:11;;;;;;;;;;;;;;;30.11;54.03;101023.13;5091934;27;66470;-40
2023/02/25 08:14:41;;;;;;;;;;;;;;;30.16;53.51;101020.63;5086619;27;69106;-39
2023/02/25 08:17:12;;;;;;;;;;;;;;;30.21;53.57;101017.28;5097266;27;65662;-41
2023/02/25 08:19:42;;;;;;;;;;;;;;;30.22;53.60;101019.78;5094240;27;70353;-41
2023/02/25 08:22:12;;;;;;;;;;;;;;;30.27;52.67;101011.03;5069783;27;66564;-40
2023/02/25 08:24:42;;;;;;;;;;;;;;;30.41;52.25;101017.25;5086635;27;70195;-41
2023/02/25 08:27:12;;;;;;;;;;;;;;;30.43;52.56;101009.75;5089422;27;66350;-40
2023/02/25 08:29:42;;;;;;;;;;;;;;;30.50;53.60;101011.38;5091182;27;70017;-39
2023/02/25 08:32:12;;;;;;;;;;;;;;;30.59;52.24;101009.28;5068406;27;66758;-40
2023/02/25 08:34:42;;;;;;;;;;;;;;;30.68;51.82;101013.38;5094483;27;70354;-39
2023/02/25 08:37:16;;;;;;;;;;;;;;;30.72;52.56;101009.19;5088662;27;66121;-39
2023/02/25 08:39:45;;;;;;;;;;;;;;;30.79;51.88;101005.63;5087494;27;70092;-39
2023/02/25 08:42:17;;;;;;;;;;;;;;;30.86;51.43;101009.16;5091038;27;66569;-39
2023/02/25 08:44:48;;;;;;;;;;;;;;;30.91;51.55;101003.91;5089316;27;70858;-44
2023/02/25 08:47:18;;;;;;;;;;;;;;;30.94;52.85;101008.88;5069928;27;66336;-41
2023/02/25 08:49:48;;;;;;;;;;;;;;;30.97;53.59;101008.44;5091896;27;70339;-41
2023/02/25 08:52:19;;;;;;;;;;;;;;;31.02;54.02;101008.63;5092495;27;65236;-43
2023/02/25 08:54:50;;;;;;;;;;;;;;;31.04;54.49;101008.44;5092920;27;70488;-43
2023/02/25 08:57:20;;;;;;;;;;;;;;;31.07;54.03;101011.53;5091354;27;65891;-46
2023/02/25 08:59:50;;;;;;;;;;;;;;;31.10;53.99;101011.09;5096426;27;70288;-43
2023/02/25 09:02:24;;;;;;;;;;;;;;;31.11;52.90;101010.03;5093417;27;59618;-44
2023/02/25 09:04:55;;;;;;;;;;;;;;;31.15;53.48;101013.97;5069480;27;70524;-44
2023/02/25 09:07:25;;;;;;;;;;;;;;;31.24;53.49;101016.41;5093030;27;68081;-43
2023/02/25 09:09:55;;;;;;;;;;;;;;;31.18;53.52;101015.41;5091926;27;70753;-44
2023/02/25 09:12:25;;;;;;;;;;;;;;;31.23;52.09;101020.16;5085718;27;65397;-45
2023/02/25 09:14:55;;;;;;;;;;;;;;;31.25;51.50;101029.72;5087804;27;69988;-40
2023/02/25 09:17:25;;;;;;;;;;;;;;;31.30;51.51;101029.09;5090769;27;65317;-40
2023/02/25 09:19:57;;;;;;;;;;;;;;;31.38;51.88;101037.81;5092987;27;69159;-43
2023/02/25 09:22:27;;;;;;;;;;;;;;;31.45;52.43;101024.19;5070225;27;65203;-40
2023/02/25 09:24:57;;;;;;;;;;;;;;;31.60;52.60;101035.53;5092472;27;70343;-42
2023/02/25 09:27:27;;;;;;;;;;;;;;;31.73;52.70;101029.19;5088003;27;65560;-42
2023/02/25 09:29:57;;;;;;;;;;;;;;;31.85;51.81;101017.59;5095255;27;69321;-40
2023/02/25 09:32:27;;;;;;;;;;;;;;;31.92;51.42;101030.06;5089831;27;67122;-39
2023/02/25 09:35:06;;;;;;;;;;;;;;;31.99;50.81;101030.84;5092399;27;70732;-40
2023/02/25 09:37:35;;;;;;;;;;;;;;;32.08;51.38;101030.53;5087716;27;65767;-40
2023/02/25 09:40:07;;;;;;;;;;;;;;;32.11;51.08;101033.63;5068170;27;69915;-41
2023/02/25 09:42:49;;;;;;;;;;;;;;;32.16;51.08;101027.53;5093954;27;66009;-41
2023/02/25 09:45:22;;;;;;;;;;;;;;;32.20;51.20;101026.00;5084120;27;70788;-40
2023/02/25 09:48:00;;;;;;;;;;;;;;;32.24;50.76;101027.22;5087400;27;66412;-40
2023/02/25 09:50:43;;;;;;;;;;;;;;;32.28;49.91;101034.69;5088675;27;70268;-41
2023/02/25 09:53:16;;;;;;;;;;;;;;;32.32;50.08;101031.50;5083911;27;67007;-40
2023/02/25 09:55:51;;;;;;;;;;;;;;;32.35;49.99;101036.50;5093943;27;69255;-41
2023/02/25 09:58:30;;;;;;;;;;;;;;;32.38;49.91;101050.44;5086362;27;66051;-41
2023/02/25 10:01:12;;;;;;;;;;;;;;;31.96;49.56;100982.44;5093084;27;70123;-40
2023/02/25 10:03:45;;;;;;;;;;;;;;;32.43;49.81;101056.03;5086899;27;66996;-41
2023/02/25 10:06:24;;;;;;;;;;;;;;;32.45;49.65;101051.19;5072869;27;69776;-40
2023/02/25 10:09:00;;;;;;;;;;;;;;;32.46;49.77;101052.91;5075911;27;66574;-40
2023/02/25 10:11:45;;;;;;;;;;;;;;;32.46;49.57;101052.91;5090643;27;70317;-40
2023/02/25 10:14:45;;;;;;;;;;;;;;;32.50;49.57;101053.25;5090681;27;66592;-41
2023/02/25 10:17:33;;;;;;;;;;;;;;;32.51;49.48;101064.94;5078985;27;70672;-41
2023/02/25 10:20:18;;;;;;;;;;;;;;;32.51;49.32;101060.34;5073618;27;65730;-40
2023/02/25 10:22:55;;;;;;;;;;;;;;;32.51;49.54;101062.22;5095177;27;70420;-40
2023/02/25 10:25:31;;;;;;;;;;;;;;;32.51;49.50;101070.38;5095333;27;67264;-41
2023/02/25 10:28:06;;;;;;;;;;;;;;;32.52;49.54;101069.34;5097726;27;70181;-39
2023/02/25 10:30:36;;;;;;;;;;;;;;;32.51;49.60;101081.25;5097670;27;65888;-41
2023/02/25 10:33:14;;;;;;;;;;;;;;;32.52;49.50;101085.63;5095019;27;70307;-39
2023/02/25 10:35:44;;;;;;;;;;;;;;;32.50;49.81;101085.84;5090721;27;65687;-40
2023/02/25 10:38:14;;;;;;;;;;;;;;;32.47;49.96;101095.28;5093783;27;70603;-41
2023/02/25 10:40:44;;;;;;;;;;;;;;;32.46;50.17;101095.53;5092877;27;66607;-40
2023/02/25 10:43:19;;;;;;;;;;;;;;;32.45;50.11;101094.63;5094462;27;70755;-41
2023/02/25 10:45:53;;;;;;;;;;;;;;;32.43;50.23;101102.19;5077679;27;66681;-40
2023/02/25 10:48:24;;;;;;;;;;;;;;;32.42;50.32;101097.81;5092971;27;70347;-40
2023/02/25 10:51:20;;;;;;;;;;;;;;;32.42;50.48;101105.94;5089941;27;66606;-40
2023/02/25 10:53:57;;;;;;;;;;;;;;;32.39;50.51;101106.41;5089429;27;70774;-40
2023/02/25 10:56:30;;;;;;;;;;;;;;;32.39;50.33;101111.84;5092869;27;66758;-40
2023/02/25 10:59:01;;;;;;;;;;;;;;;32.39;50.43;101113.72;5091160;27;70425;-40
2023/02/25 11:01:38;;;;;;;;;;;;;;;32.35;50.46;101110.63;5092566;27;66268;-40
2023/02/25 11:04:11;;;;;;;;;;;;;;;32.36;50.35;101116.88;5089741;27;70025;-41
2023/02/25 11:06:42;;;;;;;;;;;;;;;32.35;50.62;101131.53;5090193;27;66026;-40
2023/02/25 11:09:18;;;;;;;;;;;;;;;32.33;50.52;101134.47;5093281;27;70439;-43
2023/02/25 11:11:55;;;;;;;;;;;;;;;32.32;50.72;101137.38;5092674;27;66015;-41
2023/02/25 11:14:27;;;;;;;;;;;;;;;32.31;50.98;101141.97;5072028;27;69858;-40
2023/02/25 11:17:05;;;;;;;;;;;;;;;32.29;50.91;101141.41;5094877;27;66104;-40
2023/02/25 11:19:37;;;;;;;;;;;;;;;32.28;50.98;101137.00;5094904;27;71142;-40
2023/02/25 11:22:09;;;;;;;;;;;;;;;32.27;51.03;101140.78;5089866;27;65750;-40
2023/02/25 11:24:41;;;;;;;;;;;;;;;32.26;50.89;101139.09;5092537;27;68970;-40
2023/02/25 11:27:31;;;;;;;;;;;;;;;32.23;51.08;101148.56;5089914;27;66755;-41
2023/02/25 11:30:12;;;;;;;;;;;;;;;32.22;51.42;101148.75;5077831;27;70281;-44
2023/02/25 11:32:44;;;;;;;;;;;;;;;32.19;51.49;101141.06;5087932;27;67740;-40
2023/02/25 11:35:19;;;;;;;;;;;;;;;32.17;51.62;101148.59;5091649;27;69901;-40
2023/02/25 11:37:49;;;;;;;;;;;;;;;32.17;51.85;101154.03;5087056;27;65924;-39
2023/02/25 11:40:21;;;;;;;;;;;;;;;32.16;51.99;101165.94;5089386;27;69663;-40
2023/02/25 11:43:01;;;;;;;;;;;;;;;32.13;51.83;101160.97;5089383;27;66450;-39
2023/02/25 11:45:46;;;;;;;;;;;;;;;32.11;52.22;101163.06;5088656;27;70270;-41
2023/02/25 11:48:18;;;;;;;;;;;;;;;32.09;52.17;101165.16;5089931;27;65239;-45
2023/02/25 11:50:56;;;;;;;;;;;;;;;32.07;52.15;101164.53;5087225;27;70713;-42
2023/02/25 11:53:34;;;;;;;;;;;;;;;32.03;52.31;101175.84;5089122;27;66459;-40
2023/02/25 11:56:26;;;;;;;;;;;;;;;32.02;52.60;101179.63;5089043;27;70761;-41
2023/02/25 11:59:06;;;;;;;;;;;;;;;31.96;52.92;101183.22;5086276;27;66727;-42
2023/02/25 12:01:46;;;;;;;;;;;;;;;31.59;53.32;101193.88;5085192;27;70568;-41
2023/02/25 12:04:25;;;;;;;;;;;;;;;31.45;53.74;101186.84;5084601;27;67280;-40
2023/02/25 12:07:01;;;;;;;;;;;;;;;31.32;53.94;101203.16;5087905;27;67682;-40
2023/02/25 12:09:30;;;;;;;;;;;;;;;31.25;54.29;101199.66;5083638;27;65675;-39
2023/02/25 12:12:33;;;;;;;;;;;;;;;31.21;54.67;101211.97;5087165;27;70110;-41
2023/02/25 12:15:03;;;;;;;;;;;;;;;31.10;55.12;101221.59;5048921;27;65728;-39
2023/02/25 12:17:46;;;;;;;;;;;;;;;31.05;54.75;101222.22;5086372;27;70371;-41
2023/02/25 12:20:28;;;;;;;;;;;;;;;31.02;55.17;101230.78;5087982;27;65446;-40
2023/02/25 12:23:01;;;;;;;;;;;;;;;31.01;55.31;101234.56;5084816;27;70528;-41
2023/02/25 12:25:50;;;;;;;;;;;;;;;30.97;55.55;101238.72;5086608;27;66753;-40
2023/02/25 12:28:20;;;;;;;;;;;;;;;30.93;55.27;101245.63;5088135;27;69712;-40
2023/02/25 12:30:50;;;;;;;;;;;;;;;30.92;55.60;101249.34;5094148;27;65933;-40
2023/02/25 12:33:38;;;;;;;;;;;;;;;30.91;55.60;101251.25;5091729;27;70324;-39
2023/02/25 12:36:08;;;;;;;;;;;;;;;30.89;55.98;101255.19;5091213;27;66645;-41
2023/02/25 12:38:54;;;;;;;;;;;;;;;30.89;56.10;101252.50;5092950;27;69505;-39
2023/02/25 12:41:44;;;;;;;;;;;;;;;30.88;55.86;101258.97;5093843;27;67002;-42
2023/02/25 12:44:15;;;;;;;;;;;;;;;30.85;56.00;101268.34;5084096;27;70640;-41
2023/02/25 12:47:03;;;;;;;;;;;;;;;30.89;56.17;101274.16;5090711;27;66129;-45
2023/02/25 12:49:33;;;;;;;;;;;;;;;30.89;56.56;101280.41;5089359;27;69943;-43
2023/02/25 12:52:17;;;;;;;;;;;;;;;30.87;56.67;101276.25;5096547;27;66553;-43
2023/02/25 12:54:47;;;;;;;;;;;;;;;30.87;56.78;101281.66;5092099;27;69470;-44
2023/02/25 12:57:25;;;;;;;;;;;;;;;30.86;57.13;101290.84;5085628;27;66832;-45
2023/02/25 13:00:04;;;;;;;;;;;;;;;30.84;57.44;101292.91;5074171;27;69051;-43
2023/02/25 13:02:41;;;;;;;;;;;;;;;30.83;57.30;101296.69;5097247;27;67356;-43
2023/02/25 13:05:17;;;;;;;;;;;;;;;30.80;57.20;101291.69;5087828;27;69872;-43